Impacts TAF Board INFO
FOR SITUATIONAL AWARENESS. NOT TO BE USED FOR FLIGHT PLANNING PURPOSES.
IDs:

KPNS - Pensacola Intl, FL, US

Issued at 1720 UTC 24 Apr 2018
Updated at 2053 UTC 24 Apr 2018
Potential Impact None Slight Moderate High
Time1953Z 24/21Z 24/22Z 24/23Z 25/00Z 25/01Z 25/02Z 25/03Z 25/04Z 25/05Z 25/06Z 25/07Z 25/08Z 25/09Z>>
Type OBS PRVL PRVL PRVL PRVL PRVL PRVL PRVL PRVL PRVL PRVL PRVL PRVL PRVL
VIS 10 >6 >6 >6 >6 >6 >6 >6 >6 >6 >6 >6 >6 >6
CIG 50 -- -- -- -- -- -- -- -- -- -- -- -- --
Cover OVC SCT SCT SCT SCT SKC SKC SKC SKC SKC SKC SKC SKC SKC
FltCat VFR VFR VFR VFR VFR VFR VFR VFR VFR VFR VFR VFR VFR VFR
WX -- -- -- -- -- -- -- -- -- -- -- -- -- --
WDir 230 290 290 290 290 320 320 320 320 320 320 320 320 320
WSpd 8 10 10 10 10 4 4 4 4 4 4 4 4 4
WGst -- -- -- -- -- -- -- -- -- -- -- -- -- --

Raw TAF
KPNS 241720Z 2418/2518 29010KT P6SM SCT050
  FM250100 32004KT P6SM SKC


Raw METAR
KPNS 241953Z 23008KT 10SM SCT043 BKN050 OVC065 23/14 A2992 RMK AO2 SLP133 T02330144
KPNS 241853Z 28011G16KT 10SM SCT046 OVC065 24/13 A2993 RMK AO2 SLP138 T02390128
KPNS 241753Z 30008KT 10SM FEW045 BKN055 24/13 A2995 RMK AO2 SLP144 T02390128 10244 20144 58014

METAR Board
Radar Display
Forecast Discussion

FOR SITUATIONAL AWARENESS. NOT TO BE USED FOR FLIGHT PLANNING PURPOSES.